createdAt,value
2022-08-23T00:00:40.202Z,15.42
2022-08-23T00:01:40.127Z,15.31
2022-08-23T00:02:40.091Z,15.28
2022-08-23T00:03:39.983Z,15.26
2022-08-23T00:04:39.896Z,15.21
2022-08-23T00:05:39.824Z,15.18
2022-08-23T00:06:39.740Z,15.18
2022-08-23T00:07:39.750Z,15.12
2022-08-23T00:08:39.591Z,15.13
2022-08-23T00:09:39.520Z,15.08
2022-08-23T00:10:39.434Z,15.08
2022-08-23T00:11:39.355Z,15.12
2022-08-23T00:12:39.284Z,14.98
2022-08-23T00:13:47.453Z,15.06
2022-08-23T00:14:39.130Z,14.95
2022-08-23T00:15:39.053Z,14.95
2022-08-23T00:16:38.979Z,15.01
2022-08-23T00:17:38.896Z,14.93
2022-08-23T00:18:38.821Z,14.97
2022-08-23T00:19:38.740Z,15.05
2022-08-23T00:20:38.662Z,14.91
2022-08-23T00:21:38.587Z,14.90
2022-08-23T00:22:38.515Z,14.90
2022-08-23T00:23:38.433Z,14.93
2022-08-23T00:24:40.962Z,14.85
2022-08-23T00:25:38.276Z,14.88
2022-08-23T00:26:38.204Z,14.85
2022-08-23T00:27:38.123Z,14.93
2022-08-23T00:28:38.052Z,14.88
2022-08-23T00:29:37.970Z,14.97
2022-08-23T00:30:37.894Z,14.91
2022-08-23T00:31:37.817Z,14.85
2022-08-23T00:32:37.736Z,14.93
2022-08-23T00:33:37.663Z,14.88
2022-08-23T00:34:37.592Z,14.84
2022-08-23T00:35:37.506Z,14.87
2022-08-23T00:36:37.436Z,14.80
2022-08-23T00:37:37.352Z,14.75
2022-08-23T00:38:37.488Z,14.71
2022-08-23T00:39:37.199Z,14.68
2022-08-23T00:40:37.125Z,14.64
2022-08-23T00:41:37.044Z,14.65
2022-08-23T00:42:36.966Z,14.64
2022-08-23T00:43:36.889Z,14.64
2022-08-23T00:44:36.814Z,14.57
2022-08-23T00:45:36.739Z,14.50
2022-08-23T00:46:36.656Z,14.61
2022-08-23T00:47:36.576Z,14.59
2022-08-23T00:48:36.503Z,14.64
2022-08-23T00:49:36.426Z,14.64
2022-08-23T00:50:36.349Z,14.65
2022-08-23T00:51:50.684Z,14.59
2022-08-23T00:52:36.198Z,14.60
2022-08-23T00:53:36.120Z,14.67
2022-08-23T00:54:36.043Z,14.67
2022-08-23T00:55:35.961Z,14.71
2022-08-23T00:56:35.883Z,14.69
2022-08-23T00:57:35.811Z,14.87
2022-08-23T00:58:35.731Z,14.80
2022-08-23T00:59:35.657Z,14.87
2022-08-23T01:00:35.577Z,14.75
2022-08-23T01:01:35.547Z,14.68
2022-08-23T01:02:35.418Z,14.61
2022-08-23T01:03:38.979Z,14.68
2022-08-23T01:04:35.265Z,14.72
2022-08-23T01:05:35.185Z,14.71
2022-08-23T01:06:35.111Z,14.69
2022-08-23T01:07:35.032Z,14.65
2022-08-23T01:08:34.960Z,14.64
2022-08-23T01:09:34.888Z,14.69
2022-08-23T01:10:34.800Z,14.61
2022-08-23T01:11:34.730Z,14.60
2022-08-23T01:12:34.645Z,14.60
2022-08-23T01:13:34.580Z,14.64
2022-08-23T01:14:34.493Z,14.72
2022-08-23T01:15:34.411Z,14.69
2022-08-23T01:16:34.334Z,14.69
2022-08-23T01:17:34.258Z,14.71
2022-08-23T01:18:34.187Z,14.74
2022-08-23T01:19:34.107Z,14.64
2022-08-23T01:20:34.032Z,14.64
2022-08-23T01:21:33.948Z,14.64
2022-08-23T01:22:33.870Z,14.67
2022-08-23T01:23:33.798Z,14.64
2022-08-23T01:25:07.654Z,14.65
2022-08-23T01:25:33.637Z,14.64
2022-08-23T01:26:33.568Z,14.59
2022-08-23T01:27:33.485Z,14.53
2022-08-23T01:28:33.409Z,14.47
2022-08-23T01:29:33.328Z,14.44
2022-08-23T01:30:33.253Z,14.42
2022-08-23T01:31:33.176Z,14.38
2022-08-23T01:32:33.103Z,14.35
2022-08-23T01:33:33.018Z,14.36
2022-08-23T01:34:34.654Z,14.38
2022-08-23T01:35:32.866Z,14.35
2022-08-23T01:36:32.791Z,14.36
2022-08-23T01:37:32.709Z,14.41
2022-08-23T01:38:32.813Z,14.32
2022-08-23T01:39:32.551Z,14.24
2022-08-23T01:40:32.480Z,14.28
2022-08-23T01:41:32.407Z,14.17
2022-08-23T01:42:32.320Z,14.19
2022-08-23T01:43:32.245Z,14.19
2022-08-23T01:44:32.168Z,14.31
2022-08-23T01:45:32.090Z,14.24
2022-08-23T01:46:32.014Z,14.27
2022-08-23T01:47:31.937Z,14.29
2022-08-23T01:48:31.861Z,14.36
2022-08-23T01:49:31.779Z,14.38
2022-08-23T01:50:31.764Z,14.36
2022-08-23T01:51:31.627Z,14.34
2022-08-23T01:52:31.548Z,14.31
2022-08-23T01:53:31.470Z,14.38
2022-08-23T01:54:31.399Z,14.36
2022-08-23T01:55:31.313Z,14.36
2022-08-23T01:56:38.707Z,14.32
2022-08-23T01:57:31.156Z,14.36
2022-08-23T01:58:31.083Z,14.32
2022-08-23T01:59:30.999Z,14.27
2022-08-23T02:00:30.925Z,14.23
2022-08-23T02:01:30.866Z,14.21
2022-08-23T02:02:30.772Z,14.24
2022-08-23T02:03:30.700Z,14.27
2022-08-23T02:04:30.614Z,14.28
2022-08-23T02:05:30.535Z,14.24
2022-08-23T02:06:30.464Z,14.14
2022-08-23T02:07:30.378Z,14.13
2022-08-23T02:10:02.813Z,14.11
2022-08-23T02:11:02.211Z,14.10
2022-08-23T02:12:02.141Z,14.13
2022-08-23T02:13:02.057Z,14.03
2022-08-23T02:14:01.976Z,13.99
2022-08-23T02:15:01.903Z,13.99
2022-08-23T02:16:01.819Z,14.05
2022-08-23T02:17:04.254Z,13.84
2022-08-23T02:18:01.792Z,13.80
2022-08-23T02:19:01.602Z,13.76
2022-08-23T02:20:01.511Z,13.73
2022-08-23T02:21:01.465Z,13.74
2022-08-23T02:22:01.356Z,13.68
2022-08-23T02:23:01.545Z,13.65
2022-08-23T02:24:01.200Z,13.65
2022-08-23T02:25:01.120Z,13.59
2022-08-23T02:26:01.055Z,13.61
2022-08-23T02:27:00.967Z,13.62
2022-08-23T02:28:00.891Z,13.61
2022-08-23T02:29:00.812Z,13.63
2022-08-23T02:30:01.971Z,13.61
2022-08-23T02:31:00.654Z,13.63
2022-08-23T02:32:00.579Z,13.63
2022-08-23T02:33:00.676Z,13.70
2022-08-23T02:34:36.411Z,13.70
2022-08-23T02:35:05.289Z,13.62
2022-08-23T02:36:00.280Z,13.62
2022-08-23T02:37:00.202Z,13.65
2022-08-23T02:38:00.383Z,13.48
2022-08-23T02:39:00.053Z,13.48
2022-08-23T02:40:00.073Z,13.44
2022-08-23T02:41:00.997Z,13.33
2022-08-23T02:41:59.815Z,13.28
2022-08-23T02:42:59.734Z,13.22
2022-08-23T02:43:59.658Z,13.24
2022-08-23T02:44:59.579Z,13.22
2022-08-23T02:45:59.505Z,13.21
2022-08-23T02:46:59.429Z,13.27
2022-08-23T02:47:59.478Z,13.36
2022-08-23T02:48:59.268Z,13.41
2022-08-23T02:49:59.192Z,13.38
2022-08-23T02:50:59.111Z,13.40
2022-08-23T02:51:59.034Z,13.52
2022-08-23T02:52:58.955Z,13.47
2022-08-23T02:53:58.878Z,13.55
2022-08-23T02:54:58.798Z,13.53
2022-08-23T02:55:58.728Z,13.50
2022-08-23T02:56:58.645Z,13.63
2022-08-23T02:57:58.624Z,13.65
2022-08-23T02:58:58.486Z,13.62
2022-08-23T02:59:58.411Z,13.56
2022-08-23T03:00:58.334Z,13.65
2022-08-23T03:01:58.291Z,13.58
2022-08-23T03:02:58.176Z,13.61
2022-08-23T03:03:58.100Z,13.59
2022-08-23T03:04:58.017Z,13.61
2022-08-23T03:06:24.135Z,13.62
2022-08-23T03:06:57.864Z,13.65
2022-08-23T03:07:57.809Z,13.58
2022-08-23T03:08:57.709Z,13.61
2022-08-23T03:09:57.631Z,13.53
2022-08-23T03:10:57.549Z,13.50
2022-08-23T03:11:57.474Z,13.52
2022-08-23T03:12:57.396Z,13.47
2022-08-23T03:13:57.318Z,13.47
2022-08-23T03:14:57.237Z,13.55
2022-08-23T03:15:57.163Z,13.55
2022-08-23T03:16:58.186Z,13.56
2022-08-23T03:17:57.011Z,13.52
2022-08-23T03:18:56.931Z,13.50
2022-08-23T03:19:56.853Z,13.40
2022-08-23T03:20:56.767Z,13.43
2022-08-23T03:21:56.692Z,13.48
2022-08-23T03:22:56.615Z,13.43
2022-08-23T03:23:56.539Z,13.50
2022-08-23T03:24:56.457Z,13.52
2022-08-23T03:25:56.379Z,13.55
2022-08-23T03:26:56.302Z,13.55
2022-08-23T03:27:56.224Z,13.50
2022-08-23T03:28:56.595Z,13.55
2022-08-23T03:29:56.068Z,13.48
2022-08-23T03:30:55.980Z,13.48
2022-08-23T03:31:55.893Z,13.48
2022-08-23T03:32:55.817Z,13.45
2022-08-23T03:33:55.748Z,13.38
2022-08-23T03:34:55.666Z,13.44
2022-08-23T03:35:55.585Z,13.48
2022-08-23T03:36:55.507Z,13.40
2022-08-23T03:37:55.473Z,13.47
2022-08-23T03:38:55.364Z,13.41
2022-08-23T03:39:55.297Z,13.37
2022-08-23T03:40:55.191Z,13.29
2022-08-23T03:41:55.112Z,13.25
2022-08-23T03:42:55.038Z,13.24
2022-08-23T03:43:54.967Z,13.15
2022-08-23T03:45:02.141Z,13.10
2022-08-23T03:45:54.801Z,13.15
2022-08-23T03:46:54.725Z,13.03
2022-08-23T03:47:54.653Z,12.99
2022-08-23T03:48:54.568Z,12.92
2022-08-23T03:49:54.493Z,12.88
2022-08-23T03:50:54.484Z,12.86
2022-08-23T03:51:54.337Z,12.73
2022-08-23T03:52:54.253Z,12.70
2022-08-23T03:53:54.176Z,12.71
2022-08-23T03:54:54.099Z,12.66
2022-08-23T03:55:54.025Z,12.69
2022-08-23T03:56:53.939Z,12.73
2022-08-23T03:57:53.863Z,12.81
2022-08-23T03:58:53.787Z,12.73
2022-08-23T03:59:53.708Z,12.67
2022-08-23T04:00:53.628Z,12.70
2022-08-23T04:01:53.635Z,12.71
2022-08-23T04:02:53.481Z,12.73
2022-08-23T04:03:53.396Z,12.74
2022-08-23T04:04:53.314Z,12.70
2022-08-23T04:05:53.238Z,12.71
2022-08-23T04:06:53.160Z,12.74
2022-08-23T04:07:53.077Z,12.77
2022-08-23T04:08:53.005Z,12.81
2022-08-23T04:09:55.192Z,12.81
2022-08-23T04:10:52.849Z,12.85
2022-08-23T04:11:52.779Z,12.82
2022-08-23T04:12:52.695Z,12.82
2022-08-23T04:13:52.614Z,12.84
2022-08-23T04:14:52.533Z,12.77
2022-08-23T04:15:52.454Z,12.77
2022-08-23T04:16:52.380Z,12.74
2022-08-23T04:17:52.309Z,12.70
2022-08-23T04:18:52.227Z,12.79
2022-08-23T04:19:52.145Z,12.74
2022-08-23T04:20:52.064Z,12.85
2022-08-23T04:21:51.984Z,12.78
2022-08-23T04:22:51.906Z,12.86
2022-08-23T04:23:51.827Z,12.88
2022-08-23T04:24:51.751Z,12.89
2022-08-23T04:25:51.668Z,12.99
2022-08-23T04:26:51.596Z,12.89
2022-08-23T04:27:51.518Z,12.94
2022-08-23T04:28:51.437Z,12.97
2022-08-23T04:29:51.355Z,12.91
2022-08-23T04:30:51.281Z,12.99
2022-08-23T04:31:51.197Z,12.97
2022-08-23T04:32:51.123Z,12.96
2022-08-23T04:33:52.644Z,13.03
2022-08-23T04:34:51.567Z,13.00
2022-08-23T04:35:50.885Z,13.07
2022-08-23T04:36:55.173Z,13.03
2022-08-23T04:37:50.730Z,13.02
2022-08-23T04:38:50.654Z,13.04
2022-08-23T04:39:51.692Z,13.00
2022-08-23T04:40:50.497Z,13.06
2022-08-23T04:41:50.417Z,13.00
2022-08-23T04:42:50.340Z,13.04
2022-08-23T04:43:50.259Z,13.03
2022-08-23T04:44:50.198Z,13.04
2022-08-23T04:45:50.100Z,13.06
2022-08-23T04:46:50.025Z,12.99
2022-08-23T04:47:49.946Z,13.02
2022-08-23T04:48:49.870Z,13.04
2022-08-23T04:49:49.795Z,12.94
2022-08-23T04:50:49.713Z,12.91
2022-08-23T04:51:53.465Z,12.99
2022-08-23T04:52:49.551Z,12.82
2022-08-23T04:53:49.473Z,12.92
2022-08-23T04:54:49.394Z,13.03
2022-08-23T04:55:49.318Z,13.03
2022-08-23T04:56:51.815Z,12.99
2022-08-23T04:57:49.160Z,12.99
2022-08-23T04:58:49.087Z,12.96
2022-08-23T04:59:49.013Z,12.89
2022-08-23T05:00:51.435Z,12.91
2022-08-23T05:01:48.849Z,12.86
2022-08-23T05:02:48.778Z,12.86
2022-08-23T05:03:48.694Z,13.00
2022-08-23T05:04:48.618Z,13.02
2022-08-23T05:05:48.534Z,12.92
2022-08-23T05:06:48.455Z,12.88
2022-08-23T05:07:48.377Z,12.97
2022-08-23T05:08:48.299Z,12.94
2022-08-23T05:09:48.222Z,12.99
2022-08-23T05:10:48.141Z,13.00
2022-08-23T05:11:48.062Z,13.06
2022-08-23T05:12:47.984Z,13.06
2022-08-23T05:13:47.908Z,13.03
2022-08-23T05:14:48.045Z,13.04
2022-08-23T05:15:47.747Z,13.17
2022-08-23T05:16:47.672Z,13.15
2022-08-23T05:17:47.589Z,13.11
2022-08-23T05:18:47.517Z,13.14
2022-08-23T05:19:47.439Z,13.18
2022-08-23T05:20:47.366Z,13.22
2022-08-23T05:21:47.276Z,13.19
2022-08-23T05:22:47.202Z,13.19
2022-08-23T05:23:51.062Z,13.18
2022-08-23T05:24:47.045Z,13.19
2022-08-23T05:25:46.965Z,13.24
2022-08-23T05:26:46.885Z,13.22
2022-08-23T05:27:46.814Z,13.28
2022-08-23T05:28:46.728Z,13.29
2022-08-23T05:29:46.653Z,13.27
2022-08-23T05:30:56.604Z,13.33
2022-08-23T05:31:46.968Z,13.33
2022-08-23T05:32:46.420Z,13.36
2022-08-23T05:33:46.340Z,13.37
2022-08-23T05:34:46.258Z,13.43
2022-08-23T05:35:46.177Z,13.45
2022-08-23T05:36:48.271Z,13.50
2022-08-23T05:37:46.024Z,13.50
2022-08-23T05:38:45.947Z,13.56
2022-08-23T05:39:45.898Z,13.62
2022-08-23T05:40:45.788Z,13.59
2022-08-23T05:41:45.707Z,13.56
2022-08-23T05:42:45.637Z,13.58
2022-08-23T05:43:45.550Z,13.63
2022-08-23T05:44:45.475Z,13.65
2022-08-23T05:45:45.398Z,13.66
2022-08-23T05:46:45.322Z,13.77
2022-08-23T05:47:45.242Z,13.65
2022-08-23T05:48:45.163Z,13.74
2022-08-23T05:49:45.078Z,13.78
2022-08-23T05:50:45.004Z,13.86
2022-08-23T05:51:44.931Z,13.86
2022-08-23T05:52:49.005Z,13.81
2022-08-23T05:53:44.767Z,13.98
2022-08-23T05:54:44.693Z,13.95
2022-08-23T05:55:44.609Z,13.95
2022-08-23T05:56:45.242Z,13.99
2022-08-23T05:57:44.456Z,14.03
2022-08-23T05:58:44.381Z,14.07
2022-08-23T05:59:44.300Z,14.02
2022-08-23T06:00:44.273Z,14.11
2022-08-23T06:01:44.143Z,14.13
2022-08-23T06:02:44.063Z,14.17
2022-08-23T06:03:43.984Z,14.14
2022-08-23T06:04:43.912Z,14.16
2022-08-23T06:05:43.825Z,14.32
2022-08-23T06:06:43.753Z,14.19
2022-08-23T06:07:43.680Z,14.23
2022-08-23T06:08:43.604Z,14.28
2022-08-23T06:09:43.516Z,14.31
2022-08-23T06:10:43.444Z,14.34
2022-08-23T06:11:43.360Z,14.31
2022-08-23T06:12:43.290Z,14.36
2022-08-23T06:13:43.250Z,14.34
2022-08-23T06:14:43.128Z,14.34
2022-08-23T06:15:43.049Z,14.42
2022-08-23T06:16:42.969Z,14.41
2022-08-23T06:17:42.893Z,14.39
2022-08-23T06:18:42.818Z,14.44
2022-08-23T06:19:42.739Z,14.54
2022-08-23T06:20:42.757Z,14.54
2022-08-23T06:21:42.580Z,14.53
2022-08-23T06:22:42.505Z,14.59
2022-08-23T06:23:42.422Z,14.65
2022-08-23T06:24:42.343Z,14.64
2022-08-23T06:25:42.271Z,14.69
2022-08-23T06:26:42.258Z,14.69
2022-08-23T06:27:42.110Z,14.75
2022-08-23T06:28:50.278Z,14.80
2022-08-23T06:29:41.959Z,14.85
2022-08-23T06:30:41.914Z,14.83
2022-08-23T06:31:41.799Z,14.83
2022-08-23T06:32:41.770Z,14.85
2022-08-23T06:33:41.696Z,14.84
2022-08-23T06:34:41.569Z,14.94
2022-08-23T06:35:41.488Z,14.94
2022-08-23T06:36:41.416Z,14.94
2022-08-23T06:37:41.332Z,14.97
2022-08-23T06:38:41.256Z,15.03
2022-08-23T06:39:41.182Z,15.06
2022-08-23T06:40:41.103Z,15.16
2022-08-23T06:41:41.019Z,15.16
2022-08-23T06:42:40.945Z,15.15
2022-08-23T06:43:40.867Z,15.23
2022-08-23T06:44:40.789Z,15.27
2022-08-23T06:45:40.706Z,15.35
2022-08-23T06:46:40.706Z,15.38
2022-08-23T06:47:40.574Z,15.39
2022-08-23T06:48:40.475Z,15.52
2022-08-23T06:49:40.399Z,15.52
2022-08-23T06:50:40.326Z,15.57
2022-08-23T06:51:40.243Z,15.55
2022-08-23T06:52:40.167Z,15.60
2022-08-23T06:53:40.087Z,15.64
2022-08-23T06:54:40.013Z,15.71
2022-08-23T06:55:39.932Z,15.70
2022-08-23T06:56:39.856Z,15.83
2022-08-23T06:57:39.774Z,15.85
2022-08-23T06:58:39.704Z,15.89
2022-08-23T06:59:39.619Z,16.00
2022-08-23T07:00:39.628Z,16.03
2022-08-23T07:01:45.646Z,16.08
2022-08-23T07:02:39.457Z,16.07
2022-08-23T07:03:39.318Z,16.22
2022-08-23T07:04:39.233Z,16.26
2022-08-23T07:05:39.155Z,16.30
2022-08-23T07:06:39.079Z,16.40
2022-08-23T07:07:44.097Z,16.45
2022-08-23T07:08:38.921Z,16.53
2022-08-23T07:09:38.846Z,16.56
2022-08-23T07:10:38.777Z,16.62
2022-08-23T07:11:38.693Z,16.66
2022-08-23T07:12:38.617Z,16.84
2022-08-23T07:13:38.537Z,16.92
2022-08-23T07:14:38.466Z,16.95
2022-08-23T07:15:38.380Z,17.08
2022-08-23T07:16:38.420Z,17.14
2022-08-23T07:17:38.230Z,17.21
2022-08-23T07:18:38.148Z,17.18
2022-08-23T07:19:38.071Z,17.40
2022-08-23T07:20:37.994Z,17.32
2022-08-23T07:21:37.924Z,17.43
2022-08-23T07:22:37.843Z,17.54
2022-08-23T07:23:37.766Z,17.64
2022-08-23T07:24:37.687Z,17.69
2022-08-23T07:25:37.611Z,17.79
2022-08-23T07:26:37.540Z,17.88
2022-08-23T07:27:37.455Z,18.06
2022-08-23T07:28:37.386Z,18.06
2022-08-23T07:29:37.303Z,18.28
2022-08-23T07:30:37.232Z,18.27
2022-08-23T07:31:37.184Z,18.37
2022-08-23T07:32:37.075Z,18.57
2022-08-23T07:33:38.337Z,18.62
2022-08-23T07:34:36.921Z,18.71
2022-08-23T07:35:40.210Z,18.74
2022-08-23T07:36:36.770Z,18.98
2022-08-23T07:37:36.686Z,19.17
2022-08-23T07:38:36.614Z,19.25
2022-08-23T07:39:36.536Z,19.28
2022-08-23T07:40:39.186Z,19.45
2022-08-23T07:41:36.386Z,19.50
2022-08-23T07:42:36.307Z,19.65
2022-08-23T07:43:36.232Z,19.78
2022-08-23T07:44:36.155Z,19.97
2022-08-23T07:45:36.079Z,20.06
2022-08-23T07:46:36.029Z,20.12
2022-08-23T07:47:35.929Z,20.24
2022-08-23T07:48:53.077Z,20.38
2022-08-23T07:49:35.777Z,20.51
2022-08-23T07:50:35.756Z,20.57
2022-08-23T07:51:35.628Z,20.65
2022-08-23T07:52:35.555Z,20.75
2022-08-23T07:53:37.447Z,20.94
2022-08-23T07:54:35.400Z,21.01
2022-08-23T07:55:35.329Z,21.05
2022-08-23T07:56:35.248Z,21.12
2022-08-23T07:57:35.180Z,21.12
2022-08-23T07:58:35.096Z,21.33
2022-08-23T07:59:35.020Z,21.36
2022-08-23T08:00:34.945Z,21.59
2022-08-23T08:01:34.910Z,21.69
2022-08-23T08:02:34.890Z,21.76
2022-08-23T08:03:34.725Z,21.82
2022-08-23T08:04:34.646Z,21.95
2022-08-23T08:05:34.589Z,21.97
2022-08-23T08:06:34.496Z,22.13
2022-08-23T08:07:37.194Z,22.22
2022-08-23T08:08:34.347Z,22.28
2022-08-23T08:09:34.271Z,22.35
2022-08-23T08:10:34.196Z,22.47
2022-08-23T08:11:35.406Z,22.68
2022-08-23T08:12:34.045Z,22.63
2022-08-23T08:13:33.987Z,22.78
2022-08-23T08:14:33.900Z,22.87
2022-08-23T08:15:33.827Z,23.05
2022-08-23T08:16:33.821Z,23.22
2022-08-23T08:17:33.678Z,23.22
2022-08-23T08:18:33.606Z,23.31
2022-08-23T08:19:33.528Z,23.22
2022-08-23T08:20:33.454Z,23.37
2022-08-23T08:21:33.377Z,23.40
2022-08-23T08:22:33.305Z,23.45
2022-08-23T08:23:33.234Z,23.58
2022-08-23T08:24:33.158Z,23.58
2022-08-23T08:25:33.086Z,23.65
2022-08-23T08:26:33.019Z,23.78
2022-08-23T08:27:33.323Z,23.80
2022-08-23T08:28:32.864Z,23.85
2022-08-23T08:29:32.793Z,23.83
2022-08-23T08:30:32.720Z,23.86
2022-08-23T08:31:32.684Z,23.98
2022-08-23T08:32:32.568Z,23.90
2022-08-23T08:33:34.275Z,24.02
2022-08-23T08:34:32.424Z,24.10
2022-08-23T08:35:32.350Z,24.08
2022-08-23T08:36:32.275Z,24.15
2022-08-23T08:37:32.207Z,24.20
2022-08-23T08:38:32.130Z,24.29
2022-08-23T08:39:32.059Z,24.27
2022-08-23T08:40:31.989Z,24.38
2022-08-23T08:41:31.916Z,24.44
2022-08-23T08:42:31.839Z,24.40
2022-08-23T08:43:31.768Z,24.44
2022-08-23T08:44:31.696Z,24.45
2022-08-23T08:45:31.618Z,24.53
2022-08-23T08:46:31.577Z,24.52
2022-08-23T08:47:31.477Z,24.56
2022-08-23T08:48:31.399Z,24.56
2022-08-23T08:49:32.001Z,24.63
2022-08-23T08:50:31.255Z,24.71
2022-08-23T08:51:31.184Z,24.82
2022-08-23T08:52:32.423Z,24.88
2022-08-23T08:53:31.044Z,24.78
2022-08-23T08:54:30.966Z,24.79
2022-08-23T08:55:30.893Z,24.88
2022-08-23T08:56:32.658Z,24.75
2022-08-23T08:57:30.748Z,24.71
2022-08-23T08:58:30.679Z,24.63
2022-08-23T08:59:30.609Z,24.71
2022-08-23T09:00:30.551Z,24.82
2022-08-23T09:01:30.531Z,24.94
2022-08-23T09:02:32.392Z,24.93
2022-08-23T09:03:30.350Z,24.90
2022-08-23T09:04:30.249Z,24.95
2022-08-23T09:05:30.170Z,24.94
2022-08-23T09:06:30.104Z,25.04
2022-08-23T09:07:31.414Z,25.16
2022-08-23T09:08:29.956Z,25.13
2022-08-23T09:09:29.887Z,25.23
2022-08-23T09:10:29.817Z,25.31
2022-08-23T09:11:29.749Z,25.38
2022-08-23T09:12:29.670Z,25.45
2022-08-23T09:13:29.600Z,25.60
2022-08-23T09:14:29.524Z,25.71
2022-08-23T09:15:29.457Z,25.60
2022-08-23T09:16:29.389Z,25.65
2022-08-23T09:17:29.313Z,25.62
2022-08-23T09:18:29.241Z,25.40
2022-08-23T09:19:29.173Z,25.37
2022-08-23T09:20:32.827Z,25.46
2022-08-23T09:21:29.030Z,25.32
2022-08-23T09:22:28.955Z,25.30
2022-08-23T09:23:28.887Z,25.32
2022-08-23T09:24:28.811Z,25.45
2022-08-23T09:25:28.750Z,25.45
2022-08-23T09:26:28.666Z,25.46
2022-08-23T09:27:28.603Z,25.42
2022-08-23T09:28:28.528Z,25.62
2022-08-23T09:29:28.457Z,25.70
2022-08-23T09:30:28.389Z,25.79
2022-08-23T09:31:28.349Z,25.92
2022-08-23T09:32:28.240Z,25.94
2022-08-23T09:33:28.174Z,26.08
2022-08-23T09:34:28.102Z,26.23
2022-08-23T09:35:28.030Z,26.18
2022-08-23T09:36:27.959Z,26.28
2022-08-23T09:37:27.889Z,26.35
2022-08-23T09:38:27.817Z,26.40
2022-08-23T09:39:30.828Z,26.53
2022-08-23T09:40:27.678Z,26.53
2022-08-23T09:41:27.614Z,26.68
2022-08-23T09:42:27.542Z,26.62
2022-08-23T09:43:27.466Z,26.58
2022-08-23T09:44:27.405Z,26.65
2022-08-23T09:45:28.189Z,26.60
2022-08-23T09:46:27.315Z,26.60
2022-08-23T09:47:27.184Z,26.61
2022-08-23T09:48:31.090Z,26.68
2022-08-23T09:49:27.047Z,26.60
2022-08-23T09:50:26.974Z,26.57
2022-08-23T09:51:26.903Z,26.61
2022-08-23T09:52:26.828Z,26.47
2022-08-23T09:53:26.759Z,26.50
2022-08-23T09:54:26.696Z,26.53
2022-08-23T09:55:26.622Z,26.55
2022-08-23T09:56:26.564Z,26.65
2022-08-23T09:57:27.776Z,26.77
2022-08-23T09:58:26.411Z,26.80
2022-08-23T09:59:27.072Z,26.79
2022-08-23T10:00:26.271Z,26.84
2022-08-23T10:01:26.242Z,26.89
2022-08-23T10:02:27.353Z,26.77
2022-08-23T10:03:26.061Z,26.68
2022-08-23T10:04:26.011Z,26.82
2022-08-23T10:05:25.926Z,26.87
2022-08-23T10:06:25.846Z,26.94
2022-08-23T10:07:25.781Z,27.19
2022-08-23T10:08:25.712Z,27.14
2022-08-23T10:09:25.642Z,27.07
2022-08-23T10:10:25.569Z,27.14
2022-08-23T10:11:25.507Z,27.19
2022-08-23T10:12:25.429Z,27.07
2022-08-23T10:13:25.364Z,27.14
2022-08-23T10:14:27.341Z,27.21
2022-08-23T10:15:25.222Z,27.14
2022-08-23T10:16:25.211Z,27.26
2022-08-23T10:17:25.080Z,27.23
2022-08-23T10:18:25.011Z,27.24
2022-08-23T10:19:24.946Z,27.29
2022-08-23T10:20:24.871Z,27.32
2022-08-23T10:21:24.805Z,27.32
2022-08-23T10:22:24.735Z,27.26
2022-08-23T10:23:24.667Z,27.17
2022-08-23T10:24:24.594Z,27.19
2022-08-23T10:25:24.527Z,27.32
2022-08-23T10:26:24.453Z,27.20
2022-08-23T10:27:24.390Z,27.24
2022-08-23T10:28:24.320Z,27.38
2022-08-23T10:29:24.247Z,27.35
2022-08-23T10:30:24.178Z,27.38
2022-08-23T10:31:24.198Z,27.44
2022-08-23T10:32:24.044Z,27.36
2022-08-23T10:33:23.972Z,27.60
2022-08-23T10:34:23.898Z,27.62
2022-08-23T10:35:23.833Z,27.74
2022-08-23T10:36:23.759Z,27.80
2022-08-23T10:37:23.693Z,27.77
2022-08-23T10:38:23.627Z,27.80
2022-08-23T10:39:23.558Z,27.73
2022-08-23T10:40:23.552Z,27.79
2022-08-23T10:41:23.419Z,27.88
2022-08-23T10:42:23.344Z,27.89
2022-08-23T10:43:23.282Z,27.97
2022-08-23T10:44:23.205Z,27.91
2022-08-23T10:45:23.144Z,27.80
2022-08-23T10:46:23.130Z,27.64
2022-08-23T10:47:23.007Z,27.70
2022-08-23T10:48:22.936Z,27.58
2022-08-23T10:49:22.866Z,27.67
2022-08-23T10:50:22.806Z,27.69
2022-08-23T10:51:23.374Z,27.89
2022-08-23T10:52:22.655Z,27.92
2022-08-23T10:53:22.592Z,28.06
2022-08-23T10:54:22.522Z,28.20
2022-08-23T10:55:22.452Z,28.38
2022-08-23T10:56:22.386Z,28.47
2022-08-23T10:57:22.315Z,28.44
2022-08-23T10:58:22.247Z,28.35
2022-08-23T10:59:22.179Z,28.32
2022-08-23T11:00:22.108Z,28.36
2022-08-23T11:01:22.054Z,28.43
2022-08-23T11:02:22.022Z,28.44
2022-08-23T11:03:24.450Z,28.46
2022-08-23T11:04:21.830Z,28.53
2022-08-23T11:05:21.766Z,28.65
2022-08-23T11:06:21.696Z,28.54
2022-08-23T11:07:21.629Z,28.61
2022-08-23T11:08:21.560Z,28.57
2022-08-23T11:09:21.489Z,28.73
2022-08-23T11:10:21.427Z,28.72
2022-08-23T11:11:21.359Z,28.72
2022-08-23T11:12:21.288Z,28.75
2022-08-23T11:13:21.216Z,28.73
2022-08-23T11:14:21.149Z,28.80
2022-08-23T11:15:21.100Z,28.65
2022-08-23T11:16:21.012Z,28.57
2022-08-23T11:17:20.948Z,28.59
2022-08-23T11:18:20.875Z,28.57
2022-08-23T11:19:20.814Z,28.59
2022-08-23T11:20:20.736Z,28.84
2022-08-23T11:21:20.674Z,28.86
2022-08-23T11:22:20.609Z,28.88
2022-08-23T11:23:20.535Z,29.06
2022-08-23T11:24:20.470Z,29.04
2022-08-23T11:25:20.405Z,29.04
2022-08-23T11:26:20.334Z,29.03
2022-08-23T11:27:20.265Z,29.00
2022-08-23T11:28:20.193Z,28.91
2022-08-23T11:29:20.128Z,28.94
2022-08-23T11:30:20.062Z,29.04
2022-08-23T11:31:20.064Z,29.01
2022-08-23T11:32:19.920Z,28.98
2022-08-23T11:33:19.854Z,29.04
2022-08-23T11:34:19.789Z,29.18
2022-08-23T11:35:19.721Z,29.28
2022-08-23T11:36:19.654Z,29.36
2022-08-23T11:37:19.601Z,29.38
2022-08-23T11:38:22.568Z,29.25
2022-08-23T11:39:20.527Z,29.10
2022-08-23T11:40:19.478Z,29.16
2022-08-23T11:41:19.319Z,29.21
2022-08-23T11:42:19.248Z,29.18
2022-08-23T11:43:19.179Z,29.14
2022-08-23T11:44:19.110Z,29.07
2022-08-23T11:45:19.043Z,29.13
2022-08-23T11:46:19.008Z,29.34
2022-08-23T11:47:18.911Z,29.46
2022-08-23T11:48:18.846Z,29.53
2022-08-23T11:49:18.775Z,29.68
2022-08-23T11:50:18.709Z,29.66
2022-08-23T11:51:18.643Z,29.78
2022-08-23T11:52:18.572Z,29.80
2022-08-23T11:53:18.500Z,29.90
2022-08-23T11:54:18.435Z,30.05
2022-08-23T11:55:18.369Z,30.08
2022-08-23T11:56:18.301Z,30.17
2022-08-23T11:57:18.237Z,30.03
2022-08-23T11:58:18.168Z,29.83
2022-08-23T11:59:18.099Z,29.95
2022-08-23T12:00:28.621Z,29.85
2022-08-23T12:01:17.963Z,29.93
2022-08-23T12:02:17.987Z,29.87
2022-08-23T12:03:17.910Z,29.66
2022-08-23T12:04:17.767Z,29.66
2022-08-23T12:05:17.695Z,29.80
2022-08-23T12:06:17.627Z,29.84
2022-08-23T12:07:17.563Z,29.78
2022-08-23T12:08:17.497Z,29.78
2022-08-23T12:09:17.431Z,29.65
2022-08-23T12:10:17.359Z,29.65
2022-08-23T12:11:17.298Z,29.81
2022-08-23T12:12:17.226Z,30.00
2022-08-23T12:13:17.158Z,29.97
2022-08-23T12:14:17.092Z,30.00
2022-08-23T12:15:17.026Z,29.77
2022-08-23T12:16:17.771Z,29.65
2022-08-23T12:17:16.966Z,29.50
2022-08-23T12:18:21.852Z,29.50
2022-08-23T12:19:16.759Z,29.29
2022-08-23T12:20:17.129Z,29.41
2022-08-23T12:21:16.620Z,29.26
2022-08-23T12:22:16.561Z,29.38
2022-08-23T12:23:16.486Z,29.50
2022-08-23T12:24:16.419Z,29.55
2022-08-23T12:25:16.357Z,29.58
2022-08-23T12:26:16.290Z,29.60
2022-08-23T12:27:16.219Z,29.65
2022-08-23T12:28:16.152Z,29.71
2022-08-23T12:29:16.084Z,29.73
2022-08-23T12:30:16.020Z,29.77
2022-08-23T12:31:16.005Z,29.81
2022-08-23T12:32:15.886Z,29.87
2022-08-23T12:33:15.821Z,30.00
2022-08-23T12:34:15.758Z,30.10
2022-08-23T12:35:15.691Z,30.11
2022-08-23T12:36:16.721Z,30.18
2022-08-23T12:37:15.554Z,30.22
2022-08-23T12:38:15.486Z,30.36
2022-08-23T12:39:15.423Z,30.24
2022-08-23T12:40:15.396Z,30.00
2022-08-23T12:41:15.284Z,30.00
2022-08-23T12:42:15.221Z,29.89
2022-08-23T12:43:19.766Z,29.95
2022-08-23T12:44:15.084Z,29.93
2022-08-23T12:45:15.017Z,30.12
2022-08-23T12:46:14.978Z,30.14
2022-08-23T12:47:14.886Z,30.21
2022-08-23T12:48:14.825Z,30.18
2022-08-23T12:49:15.152Z,30.18
2022-08-23T12:50:15.059Z,30.24
2022-08-23T12:51:14.618Z,30.24
2022-08-23T12:52:14.550Z,30.24
2022-08-23T12:53:14.489Z,30.36